Terminal Aerodrome Forecast
Issued by NWS Charleston, WV

Current Version | Previous Version | Text Only | Print | Product List | Glossary Off
Versions: 1 2 3 4 5 6 7 8 9 10 11 12 13 14 15 16 17

845
FTUS41 KRLX 231533 AAA
TAFCRW
TAF AMD
KCRW 231533Z 2316/2412 14013G20KT P6SM OVC080
     FM231700 12012G24KT P6SM -SHRA OVC140
     FM240000 12007KT P6SM OVC080=

USA.gov is the U.S. government's official web portal to all federal, state and local government web resources and services.